SPNCB EPGD-EPSY
Flight info
| Callsign | SPNCB |
|---|---|
| Flight time | 0h 37m |
| Altitude | 5000 |
| Route | NIKMI3B NIKMI DCT IBINO IBINO3T |
| Aircraft | B58/L-SCDFGY/C |
Departure
| Time | 2026-05-06 14:18 |
|---|---|
| Airport | Gdańsk Lech Wałęsa Airport (EPGD) |
Arrival
| Time | 2026-05-06 14:56 |
|---|---|
| Airport | Olsztyn-Mazury Airport (EPSY) |
| Time | Latitude | Longitude | Altitude | Speed | Heading |
|---|---|---|---|---|---|
| 2026-05-06 13:52 | 54.37964 | 18.47353 | 447 ft | 0 kts | 351° |
| 2026-05-06 13:59 | 54.37941 | 18.47359 | 447 ft | 4 kts | 351° |
| 2026-05-06 13:59 | 54.37921 | 18.47368 | 448 ft | 1 kts | 327° |
| 2026-05-06 13:59 | 54.37913 | 18.47386 | 448 ft | 1 kts | 283° |
| 2026-05-06 14:00 | 54.37913 | 18.47404 | 448 ft | 0 kts | 252° |
| 2026-05-06 14:08 | 54.37964 | 18.47353 | 447 ft | 0 kts | 351° |
| 2026-05-06 14:09 | 54.37942 | 18.47359 | 447 ft | 4 kts | 351° |
| 2026-05-06 14:09 | 54.37921 | 18.47368 | 448 ft | 1 kts | 328° |
| 2026-05-06 14:10 | 54.37913 | 18.47385 | 448 ft | 1 kts | 284° |
| 2026-05-06 14:10 | 54.37913 | 18.47404 | 448 ft | 0 kts | 252° |
| 2026-05-06 14:12 | 54.37964 | 18.47353 | 447 ft | 0 kts | 351° |
| 2026-05-06 14:12 | 54.37966 | 18.47354 | 447 ft | 0 kts | 21° |
| 2026-05-06 14:12 | 54.37949 | 18.47360 | 447 ft | 5 kts | 171° |
| 2026-05-06 14:13 | 54.37909 | 18.47365 | 448 ft | 6 kts | 172° |
| 2026-05-06 14:13 | 54.37904 | 18.47322 | 447 ft | 4 kts | 223° |
| 2026-05-06 14:13 | 54.37869 | 18.47307 | 447 ft | 5 kts | 201° |
| 2026-05-06 14:13 | 54.37830 | 18.47280 | 447 ft | 6 kts | 201° |
| 2026-05-06 14:14 | 54.37784 | 18.47236 | 447 ft | 9 kts | 270° |
| 2026-05-06 14:14 | 54.37817 | 18.47095 | 445 ft | 16 kts | 292° |
| 2026-05-06 14:14 | 54.37870 | 18.46878 | 444 ft | 21 kts | 292° |
| 2026-05-06 14:14 | 54.37933 | 18.46622 | 444 ft | 24 kts | 293° |
| 2026-05-06 14:15 | 54.38001 | 18.46352 | 444 ft | 27 kts | 292° |
| 2026-05-06 14:15 | 54.38070 | 18.46078 | 444 ft | 21 kts | 292° |
| 2026-05-06 14:15 | 54.38118 | 18.45879 | 444 ft | 13 kts | 292° |
| 2026-05-06 14:15 | 54.38150 | 18.45736 | 443 ft | 12 kts | 277° |
| 2026-05-06 14:16 | 54.38107 | 18.45632 | 442 ft | 7 kts | 204° |
| 2026-05-06 14:16 | 54.38056 | 18.45593 | 442 ft | 8 kts | 204° |
| 2026-05-06 14:16 | 54.38026 | 18.45537 | 443 ft | 7 kts | 280° |
| 2026-05-06 14:16 | 54.38062 | 18.45387 | 444 ft | 19 kts | 297° |
| 2026-05-06 14:17 | 54.38108 | 18.45232 | 442 ft | 15 kts | 177° |
| 2026-05-06 14:17 | 54.38098 | 18.45249 | 442 ft | 0 kts | 109° |
| 2026-05-06 14:17 | 54.38097 | 18.45253 | 442 ft | 0 kts | 109° |
| 2026-05-06 14:17 | 54.38092 | 18.45274 | 443 ft | 9 kts | 111° |
| 2026-05-06 14:18 | 54.37962 | 18.45795 | 440 ft | 84 kts | 113° |
| 2026-05-06 14:18 | 54.37678 | 18.46927 | 487 ft | 116 kts | 113° |
| 2026-05-06 14:18 | 54.37354 | 18.48231 | 821 ft | 119 kts | 112° |
| 2026-05-06 14:18 | 54.37079 | 18.49509 | 1218 ft | 117 kts | 107° |
| 2026-05-06 14:19 | 54.36882 | 18.50894 | 1525 ft | 119 kts | 99° |
| 2026-05-06 14:19 | 54.36729 | 18.52266 | 1841 ft | 120 kts | 104° |
| 2026-05-06 14:19 | 54.36606 | 18.53009 | 1976 ft | 122 kts | 106° |
| 2026-05-06 14:19 | 54.36507 | 18.53551 | 2091 ft | 122 kts | 107° |
| 2026-05-06 14:20 | 54.36245 | 18.54911 | 2425 ft | 118 kts | 109° |
| 2026-05-06 14:20 | 54.35949 | 18.56228 | 2679 ft | 122 kts | 118° |
| 2026-05-06 14:20 | 54.35456 | 18.57412 | 2971 ft | 122 kts | 126° |
| 2026-05-06 14:20 | 54.35013 | 18.58677 | 3232 ft | 127 kts | 115° |
| 2026-05-06 14:21 | 54.34668 | 18.60005 | 3560 ft | 121 kts | 111° |
| 2026-05-06 14:21 | 54.34340 | 18.61345 | 3768 ft | 125 kts | 115° |
| 2026-05-06 14:21 | 54.33952 | 18.62731 | 4061 ft | 131 kts | 115° |
| 2026-05-06 14:21 | 54.33572 | 18.64125 | 4329 ft | 126 kts | 113° |
| 2026-05-06 14:22 | 54.33250 | 18.65484 | 4509 ft | 134 kts | 111° |
| 2026-05-06 14:22 | 54.32788 | 18.67091 | 4455 ft | 156 kts | 118° |
| 2026-05-06 14:22 | 54.32304 | 18.68794 | 4662 ft | 158 kts | 114° |
| 2026-05-06 14:22 | 54.31863 | 18.70510 | 4913 ft | 157 kts | 113° |
| 2026-05-06 14:23 | 54.31461 | 18.72260 | 5091 ft | 159 kts | 115° |
| 2026-05-06 14:23 | 54.30909 | 18.74051 | 4907 ft | 175 kts | 117° |
| 2026-05-06 14:23 | 54.30399 | 18.75834 | 4703 ft | 167 kts | 115° |
| 2026-05-06 14:23 | 54.29961 | 18.77538 | 4736 ft | 146 kts | 113° |
| 2026-05-06 14:24 | 54.29591 | 18.79079 | 4813 ft | 134 kts | 112° |
| 2026-05-06 14:24 | 54.29250 | 18.80510 | 4717 ft | 133 kts | 115° |
| 2026-05-06 14:24 | 54.27172 | 18.87788 | 4921 ft | 131 kts | 114° |
| 2026-05-06 14:24 | 54.26817 | 18.89182 | 4883 ft | 126 kts | 112° |
| 2026-05-06 14:25 | 54.26511 | 18.90579 | 4856 ft | 125 kts | 110° |
| 2026-05-06 14:25 | 54.26231 | 18.92060 | 4920 ft | 134 kts | 109° |
| 2026-05-06 14:25 | 54.25833 | 18.93586 | 4807 ft | 142 kts | 116° |
| 2026-05-06 14:25 | 54.25425 | 18.95016 | 4858 ft | 134 kts | 116° |
| 2026-05-06 14:26 | 54.25032 | 18.96415 | 4883 ft | 126 kts | 115° |
| 2026-05-06 14:26 | 54.24650 | 18.97799 | 4924 ft | 126 kts | 115° |
| 2026-05-06 14:26 | 54.24275 | 18.99166 | 4832 ft | 131 kts | 115° |
| 2026-05-06 14:26 | 54.23909 | 19.00512 | 4952 ft | 125 kts | 115° |
| 2026-05-06 14:27 | 54.23530 | 19.01914 | 4923 ft | 133 kts | 114° |
| 2026-05-06 14:27 | 54.23105 | 19.03494 | 4843 ft | 159 kts | 115° |
| 2026-05-06 14:27 | 54.22644 | 19.05194 | 4989 ft | 160 kts | 115° |
| 2026-05-06 14:27 | 54.22145 | 19.07035 | 4898 ft | 177 kts | 115° |
| 2026-05-06 14:28 | 54.21643 | 19.08902 | 4994 ft | 175 kts | 115° |
| 2026-05-06 14:28 | 54.21116 | 19.10855 | 4843 ft | 184 kts | 115° |
| 2026-05-06 14:28 | 54.20587 | 19.12817 | 4983 ft | 178 kts | 114° |
| 2026-05-06 14:28 | 54.19855 | 19.14575 | 4772 ft | 191 kts | 136° |
| 2026-05-06 14:29 | 54.18883 | 19.16029 | 5042 ft | 175 kts | 140° |
| 2026-05-06 14:29 | 54.17968 | 19.17313 | 4778 ft | 190 kts | 141° |
| 2026-05-06 14:29 | 54.17165 | 19.18414 | 4810 ft | 184 kts | 141° |
| 2026-05-06 14:29 | 54.16192 | 19.19730 | 4953 ft | 178 kts | 141° |
| 2026-05-06 14:30 | 54.15193 | 19.21073 | 4783 ft | 185 kts | 142° |
| 2026-05-06 14:30 | 54.14205 | 19.22393 | 4910 ft | 177 kts | 141° |
| 2026-05-06 14:30 | 54.13222 | 19.23704 | 4836 ft | 182 kts | 142° |
| 2026-05-06 14:30 | 54.12239 | 19.25015 | 4898 ft | 178 kts | 142° |
| 2026-05-06 14:31 | 54.11262 | 19.26315 | 4878 ft | 181 kts | 142° |
| 2026-05-06 14:31 | 54.10260 | 19.27643 | 4912 ft | 181 kts | 142° |
| 2026-05-06 14:31 | 54.09273 | 19.28952 | 4920 ft | 183 kts | 142° |
| 2026-05-06 14:31 | 54.08271 | 19.30282 | 4961 ft | 182 kts | 142° |
| 2026-05-06 14:32 | 54.07270 | 19.31606 | 4860 ft | 185 kts | 142° |
| 2026-05-06 14:32 | 54.06249 | 19.32958 | 4859 ft | 181 kts | 142° |
| 2026-05-06 14:32 | 54.05262 | 19.34264 | 4876 ft | 180 kts | 142° |
| 2026-05-06 14:32 | 54.04268 | 19.35580 | 4848 ft | 180 kts | 142° |
| 2026-05-06 14:33 | 54.03290 | 19.36870 | 4873 ft | 178 kts | 142° |
| 2026-05-06 14:33 | 54.02306 | 19.38172 | 4865 ft | 179 kts | 142° |
| 2026-05-06 14:33 | 54.01319 | 19.39474 | 4868 ft | 179 kts | 142° |
| 2026-05-06 14:33 | 54.00339 | 19.40765 | 4896 ft | 179 kts | 142° |
| 2026-05-06 14:34 | 53.99353 | 19.42065 | 4866 ft | 180 kts | 142° |
| 2026-05-06 14:34 | 53.98369 | 19.43362 | 4882 ft | 180 kts | 142° |
| 2026-05-06 14:34 | 53.97371 | 19.44674 | 4965 ft | 181 kts | 142° |
| 2026-05-06 14:34 | 53.96368 | 19.45992 | 4889 ft | 187 kts | 142° |
| 2026-05-06 14:35 | 53.95352 | 19.47332 | 4925 ft | 183 kts | 141° |
| 2026-05-06 14:35 | 53.94337 | 19.48664 | 4878 ft | 185 kts | 142° |
| 2026-05-06 14:35 | 53.93325 | 19.49995 | 4885 ft | 183 kts | 142° |
| 2026-05-06 14:35 | 53.92329 | 19.51300 | 4841 ft | 183 kts | 142° |
| 2026-05-06 14:36 | 53.91328 | 19.52613 | 4864 ft | 180 kts | 142° |
| 2026-05-06 14:36 | 53.90334 | 19.53915 | 4854 ft | 180 kts | 142° |
| 2026-05-06 14:36 | 53.89346 | 19.55210 | 4959 ft | 180 kts | 142° |
| 2026-05-06 14:36 | 53.88340 | 19.56524 | 4909 ft | 184 kts | 142° |
| 2026-05-06 14:37 | 53.87326 | 19.57855 | 4857 ft | 184 kts | 142° |
| 2026-05-06 14:37 | 53.86330 | 19.59156 | 4882 ft | 181 kts | 142° |
| 2026-05-06 14:37 | 53.85320 | 19.60475 | 4833 ft | 182 kts | 142° |
| 2026-05-06 14:37 | 53.84327 | 19.61772 | 4873 ft | 178 kts | 142° |
| 2026-05-06 14:38 | 53.83341 | 19.63056 | 4919 ft | 180 kts | 142° |
| 2026-05-06 14:38 | 53.82354 | 19.64346 | 4884 ft | 182 kts | 142° |
| 2026-05-06 14:38 | 53.81345 | 19.65661 | 4848 ft | 181 kts | 142° |
| 2026-05-06 14:38 | 53.80360 | 19.66947 | 4931 ft | 180 kts | 143° |
| 2026-05-06 14:39 | 53.79351 | 19.68257 | 4866 ft | 183 kts | 142° |
| 2026-05-06 14:39 | 53.78342 | 19.69569 | 4895 ft | 180 kts | 142° |
| 2026-05-06 14:39 | 53.77355 | 19.70856 | 4873 ft | 182 kts | 143° |
| 2026-05-06 14:39 | 53.76356 | 19.72152 | 4876 ft | 182 kts | 142° |
| 2026-05-06 14:40 | 53.75351 | 19.73457 | 4913 ft | 180 kts | 143° |
| 2026-05-06 14:40 | 53.74352 | 19.74755 | 4855 ft | 183 kts | 142° |
| 2026-05-06 14:40 | 53.73348 | 19.76055 | 4879 ft | 180 kts | 143° |
| 2026-05-06 14:40 | 53.72354 | 19.77342 | 4870 ft | 180 kts | 143° |
| 2026-05-06 14:41 | 53.71392 | 19.78586 | 4792 ft | 174 kts | 142° |
| 2026-05-06 14:41 | 53.70423 | 19.79847 | 4920 ft | 171 kts | 142° |
| 2026-05-06 14:41 | 53.69479 | 19.81069 | 4866 ft | 179 kts | 142° |
| 2026-05-06 14:41 | 53.68483 | 19.82354 | 4822 ft | 179 kts | 142° |
| 2026-05-06 14:42 | 53.67509 | 19.83614 | 4915 ft | 175 kts | 142° |
| 2026-05-06 14:42 | 53.66518 | 19.84893 | 4818 ft | 181 kts | 143° |
| 2026-05-06 14:42 | 53.65543 | 19.86152 | 4896 ft | 176 kts | 142° |
| 2026-05-06 14:42 | 53.64565 | 19.87411 | 4836 ft | 180 kts | 142° |
| 2026-05-06 14:43 | 53.63570 | 19.88694 | 4889 ft | 177 kts | 142° |
| 2026-05-06 14:43 | 53.62595 | 19.89951 | 4894 ft | 179 kts | 142° |
| 2026-05-06 14:43 | 53.61608 | 19.91221 | 4867 ft | 180 kts | 142° |
| 2026-05-06 14:43 | 53.60611 | 19.92506 | 4901 ft | 179 kts | 143° |
| 2026-05-06 14:44 | 53.59613 | 19.93789 | 4866 ft | 181 kts | 142° |
| 2026-05-06 14:44 | 53.58608 | 19.95081 | 4890 ft | 181 kts | 142° |
| 2026-05-06 14:44 | 53.57611 | 19.96361 | 4933 ft | 181 kts | 142° |
| 2026-05-06 14:45 | 53.56353 | 19.99910 | 4950 ft | 172 kts | 104° |
| 2026-05-06 14:45 | 53.56096 | 20.01923 | 4804 ft | 184 kts | 101° |
| 2026-05-06 14:45 | 53.55875 | 20.04017 | 4838 ft | 178 kts | 99° |
| 2026-05-06 14:45 | 53.55682 | 20.06072 | 4924 ft | 177 kts | 99° |
| 2026-05-06 14:46 | 53.55494 | 20.08145 | 4846 ft | 182 kts | 98° |
| 2026-05-06 14:46 | 53.55315 | 20.10230 | 4896 ft | 178 kts | 98° |
| 2026-05-06 14:46 | 53.55138 | 20.12308 | 4888 ft | 181 kts | 98° |
| 2026-05-06 14:46 | 53.54964 | 20.14423 | 4913 ft | 181 kts | 98° |
| 2026-05-06 14:47 | 53.54787 | 20.16534 | 4872 ft | 182 kts | 98° |
| 2026-05-06 14:47 | 53.54616 | 20.18617 | 4858 ft | 182 kts | 97° |
| 2026-05-06 14:47 | 53.54442 | 20.20723 | 4943 ft | 180 kts | 98° |
| 2026-05-06 14:47 | 53.54268 | 20.22835 | 4851 ft | 185 kts | 98° |
| 2026-05-06 14:48 | 53.54093 | 20.24952 | 4937 ft | 180 kts | 97° |
| 2026-05-06 14:48 | 53.52899 | 20.39263 | 4648 ft | 183 kts | 98° |
| 2026-05-06 14:48 | 53.51451 | 20.56392 | 4805 ft | 176 kts | 98° |
| 2026-05-06 14:48 | 53.51284 | 20.58448 | 4567 ft | 181 kts | 95° |
| 2026-05-06 14:49 | 53.51147 | 20.60554 | 4254 ft | 179 kts | 96° |
| 2026-05-06 14:49 | 53.50994 | 20.62387 | 3911 ft | 138 kts | 98° |
| 2026-05-06 14:49 | 53.50837 | 20.63841 | 3651 ft | 118 kts | 101° |
| 2026-05-06 14:49 | 53.50663 | 20.65237 | 3185 ft | 134 kts | 102° |
| 2026-05-06 14:50 | 53.50133 | 20.69138 | 2708 ft | 160 kts | 103° |
| 2026-05-06 14:50 | 53.49265 | 20.75266 | 2398 ft | 167 kts | 104° |
| 2026-05-06 14:50 | 53.48951 | 20.77161 | 2357 ft | 169 kts | 107° |
| 2026-05-06 14:50 | 53.48613 | 20.79078 | 2178 ft | 173 kts | 107° |
| 2026-05-06 14:51 | 53.48228 | 20.81021 | 2012 ft | 174 kts | 116° |
| 2026-05-06 14:51 | 53.47435 | 20.82346 | 2077 ft | 157 kts | 157° |
| 2026-05-06 14:51 | 53.46366 | 20.82446 | 1896 ft | 159 kts | 194° |
| 2026-05-06 14:51 | 53.45359 | 20.81765 | 1772 ft | 156 kts | 203° |
| 2026-05-06 14:52 | 53.44361 | 20.81142 | 1787 ft | 148 kts | 192° |
| 2026-05-06 14:52 | 53.43364 | 20.81083 | 1825 ft | 144 kts | 168° |
| 2026-05-06 14:52 | 53.42468 | 20.81829 | 1718 ft | 142 kts | 141° |
| 2026-05-06 14:52 | 53.41943 | 20.83102 | 1629 ft | 133 kts | 114° |
| 2026-05-06 14:53 | 53.41645 | 20.84554 | 1611 ft | 130 kts | 107° |
| 2026-05-06 14:53 | 53.41382 | 20.86019 | 1487 ft | 134 kts | 107° |
| 2026-05-06 14:53 | 53.41118 | 20.87484 | 1448 ft | 130 kts | 108° |
| 2026-05-06 14:53 | 53.40918 | 20.88852 | 1615 ft | 107 kts | 85° |
| 2026-05-06 14:54 | 53.41343 | 20.89839 | 1688 ft | 115 kts | 34° |
| 2026-05-06 14:54 | 53.42036 | 20.90416 | 1583 ft | 110 kts | 20° |
| 2026-05-06 14:54 | 53.42775 | 20.90804 | 1396 ft | 110 kts | 15° |
| 2026-05-06 14:54 | 53.43507 | 20.91166 | 1262 ft | 110 kts | 18° |
| 2026-05-06 14:55 | 53.44216 | 20.91576 | 1097 ft | 109 kts | 18° |
| 2026-05-06 14:55 | 53.44936 | 20.91952 | 953 ft | 111 kts | 18° |
| 2026-05-06 14:55 | 53.45683 | 20.92381 | 831 ft | 116 kts | 18° |
| 2026-05-06 14:55 | 53.46456 | 20.92811 | 633 ft | 113 kts | 19° |
| 2026-05-06 14:56 | 53.47153 | 20.93198 | 492 ft | 97 kts | 18° |
| 2026-05-06 14:56 | 53.47662 | 20.93489 | 466 ft | 60 kts | 19° |
| 2026-05-06 14:56 | 53.47992 | 20.93664 | 466 ft | 41 kts | 14° |
| 2026-05-06 14:56 | 53.48226 | 20.93793 | 466 ft | 30 kts | 19° |
| 2026-05-06 14:57 | 53.48406 | 20.93897 | 466 ft | 24 kts | 18° |
| 2026-05-06 14:57 | 53.48556 | 20.93977 | 466 ft | 20 kts | 18° |
| 2026-05-06 14:57 | 53.48685 | 20.94047 | 466 ft | 17 kts | 18° |
| 2026-05-06 14:57 | 53.48776 | 20.94134 | 466 ft | 11 kts | 56° |
| 2026-05-06 14:58 | 53.48788 | 20.94259 | 466 ft | 10 kts | 99° |
| 2026-05-06 14:58 | 53.48761 | 20.94371 | 466 ft | 11 kts | 159° |
| 2026-05-06 14:58 | 53.48717 | 20.94428 | 466 ft | 9 kts | 110° |
| 2026-05-06 14:58 | 53.48706 | 20.94480 | 466 ft | 4 kts | 109° |
| 2026-05-06 14:59 | 53.48702 | 20.94498 | 466 ft | 0 kts | 109° |